createdAt,value
2023-03-05T00:01:09.154Z,81.16
2023-03-05T00:03:36.486Z,82.33
2023-03-05T00:06:03.813Z,81.34
2023-03-05T00:08:31.379Z,82.95
2023-03-05T00:11:00.182Z,82.66
2023-03-05T00:13:27.277Z,82.88
2023-03-05T00:15:54.081Z,84.24
2023-03-05T00:18:21.393Z,82.01
2023-03-05T00:20:48.386Z,81.58
2023-03-05T00:23:15.558Z,81.88
2023-03-05T00:25:42.398Z,83.20
2023-03-05T00:28:09.290Z,82.76
2023-03-05T00:30:35.935Z,81.44
2023-03-05T00:33:02.686Z,80.70
2023-03-05T00:35:29.425Z,80.63
2023-03-05T00:37:56.232Z,81.71
2023-03-05T00:40:23.211Z,82.08
2023-03-05T00:42:50.095Z,81.54
2023-03-05T00:45:16.944Z,81.52
2023-03-05T00:47:45.889Z,82.30
2023-03-05T00:50:12.470Z,84.42
2023-03-05T00:52:39.116Z,82.75
2023-03-05T00:55:06.060Z,81.17
2023-03-05T00:57:33.053Z,80.71
2023-03-05T00:59:59.733Z,80.29
2023-03-05T01:02:26.364Z,83.13
2023-03-05T01:04:52.984Z,82.50
2023-03-05T01:07:19.591Z,81.89
2023-03-05T01:09:46.172Z,80.98
2023-03-05T01:12:12.851Z,79.99
2023-03-05T01:14:39.609Z,80.26
2023-03-05T01:17:08.266Z,79.72
2023-03-05T01:19:34.873Z,81.70
2023-03-05T01:22:03.847Z,80.82
2023-03-05T01:24:32.046Z,81.15
2023-03-05T01:26:59.071Z,80.42
2023-03-05T01:29:25.686Z,80.68
2023-03-05T01:31:52.305Z,79.60
2023-03-05T01:34:19.249Z,80.67
2023-03-05T01:36:45.944Z,79.96
2023-03-05T01:39:13.022Z,79.74
2023-03-05T01:41:39.588Z,80.15
2023-03-05T01:44:06.172Z,81.91
2023-03-05T01:46:35.200Z,80.62
2023-03-05T01:49:27.972Z,80.81
2023-03-05T01:52:07.558Z,79.61
2023-03-05T01:54:39.301Z,80.28
2023-03-05T01:57:16.788Z,80.59
2023-03-05T01:59:48.541Z,80.49
2023-03-05T02:02:15.357Z,81.06
2023-03-05T02:04:46.508Z,80.09
2023-03-05T02:07:15.786Z,79.90
2023-03-05T02:09:42.487Z,80.50
2023-03-05T02:12:12.897Z,80.34
2023-03-05T02:14:41.294Z,81.42
2023-03-05T02:17:08.818Z,80.39
2023-03-05T02:20:16.180Z,80.69
2023-03-05T02:22:43.151Z,80.04
2023-03-05T02:25:21.954Z,80.35
2023-03-05T02:28:00.104Z,79.12
2023-03-05T02:30:26.896Z,80.00
2023-03-05T02:32:59.360Z,81.10
2023-03-05T02:35:27.638Z,78.92
2023-03-05T02:37:54.430Z,78.45
2023-03-05T02:40:21.179Z,79.61
2023-03-05T02:42:49.043Z,78.50
2023-03-05T02:45:15.896Z,79.92
2023-03-05T02:47:42.567Z,79.93
2023-03-05T02:50:12.624Z,80.20
2023-03-05T02:52:40.508Z,80.13
2023-03-05T02:55:12.245Z,78.83
2023-03-05T02:57:40.072Z,78.34
2023-03-05T03:00:07.239Z,80.23
2023-03-05T03:02:34.436Z,79.80
2023-03-05T03:05:01.161Z,78.99
2023-03-05T03:07:27.865Z,78.52
2023-03-05T03:09:54.472Z,78.69
2023-03-05T03:12:21.581Z,78.53
2023-03-05T03:14:48.268Z,78.16
2023-03-05T03:17:17.895Z,76.90
2023-03-05T03:19:45.455Z,77.46
2023-03-05T03:22:14.458Z,77.64
2023-03-05T03:24:42.169Z,76.74
2023-03-05T03:27:09.373Z,76.76
2023-03-05T03:29:37.563Z,76.78
2023-03-05T03:32:04.750Z,78.25
2023-03-05T03:34:31.730Z,77.27
2023-03-05T03:36:58.327Z,77.85
2023-03-05T03:39:25.470Z,79.09
2023-03-05T03:41:53.514Z,79.62
2023-03-05T03:44:21.668Z,78.17
2023-03-05T03:46:50.032Z,77.93
2023-03-05T03:49:17.970Z,78.35
2023-03-05T03:51:45.015Z,78.48
2023-03-05T03:54:11.991Z,77.49
2023-03-05T03:56:38.697Z,77.43
2023-03-05T03:59:05.488Z,78.10
2023-03-05T04:01:33.240Z,76.71
2023-03-05T04:04:00.074Z,77.70
2023-03-05T04:06:27.027Z,78.74
2023-03-05T04:08:53.613Z,78.33
2023-03-05T04:11:20.304Z,77.31
2023-03-05T04:13:47.840Z,76.73
2023-03-05T04:16:15.655Z,76.97
2023-03-05T04:18:42.804Z,78.01
2023-03-05T04:21:09.791Z,78.02
2023-03-05T04:23:36.692Z,76.91
2023-03-05T04:26:03.871Z,77.34
2023-03-05T04:28:30.568Z,78.06
2023-03-05T04:30:57.316Z,77.36
2023-03-05T04:33:23.951Z,77.25
2023-03-05T04:35:51.027Z,76.54
2023-03-05T04:38:17.797Z,76.21
2023-03-05T04:40:45.655Z,77.40
2023-03-05T04:43:12.379Z,72.08
2023-03-05T04:45:43.631Z,71.16
2023-03-05T04:48:11.322Z,73.79
2023-03-05T04:50:38.233Z,72.52
2023-03-05T04:53:05.027Z,73.97
2023-03-05T04:55:31.779Z,73.62
2023-03-05T04:57:58.563Z,72.21
2023-03-05T05:00:25.386Z,71.49
2023-03-05T05:02:52.510Z,71.38
2023-03-05T05:05:25.386Z,70.44
2023-03-05T05:07:58.668Z,70.10
2023-03-05T05:10:26.657Z,71.36
2023-03-05T05:12:53.872Z,72.56
2023-03-05T05:15:20.870Z,72.09
2023-03-05T05:17:48.033Z,72.11
2023-03-05T05:20:16.382Z,70.49
2023-03-05T05:22:43.831Z,73.16
2023-03-05T05:25:10.918Z,70.73
2023-03-05T05:27:39.293Z,72.75
2023-03-05T05:30:07.617Z,70.98
2023-03-05T05:32:34.238Z,70.19
2023-03-05T05:35:00.978Z,68.28
2023-03-05T05:37:29.603Z,68.24
2023-03-05T05:39:56.172Z,70.25
2023-03-05T05:42:24.836Z,68.24
2023-03-05T05:44:51.707Z,68.96
2023-03-05T05:47:18.935Z,69.89
2023-03-05T05:49:45.621Z,71.69
2023-03-05T05:52:13.210Z,69.98
2023-03-05T05:54:39.953Z,69.58
2023-03-05T05:57:07.263Z,66.88
2023-03-05T05:59:37.486Z,66.65
2023-03-05T06:02:07.993Z,65.50
2023-03-05T06:04:35.760Z,68.46
2023-03-05T06:07:03.337Z,69.98
2023-03-05T06:09:30.048Z,72.14
2023-03-05T06:11:56.615Z,71.98
2023-03-05T06:14:23.131Z,72.04
2023-03-05T06:16:49.825Z,72.94
2023-03-05T06:19:16.714Z,72.99
2023-03-05T06:21:43.571Z,74.42
2023-03-05T06:24:10.607Z,72.96
2023-03-05T06:26:37.265Z,72.15
2023-03-05T06:29:04.203Z,70.99
2023-03-05T06:31:31.202Z,71.67
2023-03-05T06:34:03.275Z,70.21
2023-03-05T06:36:30.598Z,67.71
2023-03-05T06:38:58.322Z,70.58
2023-03-05T06:41:30.395Z,70.87
2023-03-05T06:44:04.936Z,70.48
2023-03-05T06:46:34.501Z,70.25
2023-03-05T06:49:02.462Z,71.51
2023-03-05T06:51:32.410Z,71.08
2023-03-05T06:54:14.358Z,70.63
2023-03-05T06:56:43.743Z,71.77
2023-03-05T06:59:16.354Z,72.35
2023-03-05T07:01:44.134Z,72.36
2023-03-05T07:04:12.411Z,71.47
2023-03-05T07:06:41.751Z,73.42
2023-03-05T07:09:10.721Z,72.81
2023-03-05T07:11:39.135Z,70.57
2023-03-05T07:14:05.679Z,70.90
2023-03-05T07:16:33.913Z,73.89
2023-03-05T07:19:02.996Z,72.57
2023-03-05T07:21:31.763Z,70.67
2023-03-05T07:24:01.145Z,72.38
2023-03-05T07:26:28.618Z,70.56
2023-03-05T07:28:55.177Z,70.28
2023-03-05T07:31:27.012Z,69.73
2023-03-05T07:33:54.251Z,69.18
2023-03-05T07:36:20.974Z,68.89
2023-03-05T07:38:47.790Z,68.81
2023-03-05T07:41:22.087Z,67.61
2023-03-05T07:43:50.677Z,67.93
2023-03-05T07:46:19.171Z,70.28
2023-03-05T07:48:45.908Z,70.37
2023-03-05T07:51:15.826Z,67.26
2023-03-05T07:53:43.843Z,67.38
2023-03-05T07:56:11.092Z,66.96
2023-03-05T07:58:37.796Z,66.09
2023-03-05T08:01:04.635Z,66.38
2023-03-05T08:03:31.372Z,66.53
2023-03-05T08:05:58.118Z,68.82
2023-03-05T08:08:24.701Z,67.47
2023-03-05T08:10:51.348Z,68.61
2023-03-05T08:13:18.031Z,65.20
2023-03-05T08:15:46.144Z,64.23
2023-03-05T08:18:13.819Z,62.59
2023-03-05T08:20:40.382Z,61.91
2023-03-05T08:23:07.058Z,59.92
2023-03-05T08:25:33.678Z,62.69
2023-03-05T08:28:00.349Z,62.57
2023-03-05T08:30:27.605Z,61.94
2023-03-05T08:32:55.575Z,61.71
2023-03-05T08:35:23.182Z,59.07
2023-03-05T08:37:49.938Z,59.60
2023-03-05T08:40:20.269Z,59.78
2023-03-05T08:42:47.089Z,58.67
2023-03-05T08:45:14.041Z,60.00
2023-03-05T08:47:40.809Z,61.23
2023-03-05T08:50:08.103Z,59.03
2023-03-05T08:52:34.763Z,62.06
2023-03-05T08:55:01.519Z,60.74
2023-03-05T08:57:28.359Z,60.69
2023-03-05T08:59:57.935Z,60.88
2023-03-05T09:02:24.642Z,59.85
2023-03-05T09:04:51.403Z,62.01
2023-03-05T09:07:18.072Z,60.46
2023-03-05T09:09:47.762Z,59.15
2023-03-05T09:12:15.942Z,58.30
2023-03-05T09:14:42.768Z,61.08
2023-03-05T09:17:09.557Z,62.12
2023-03-05T09:19:36.262Z,62.13
2023-03-05T09:22:02.998Z,60.88
2023-03-05T09:24:29.752Z,60.46
2023-03-05T09:27:00.476Z,60.30
2023-03-05T09:29:27.771Z,63.32
2023-03-05T09:31:54.793Z,62.84
2023-03-05T09:34:21.925Z,60.53
2023-03-05T09:36:48.910Z,59.03
2023-03-05T09:39:17.014Z,59.57
2023-03-05T09:42:19.758Z,59.52
2023-03-05T09:44:55.275Z,59.92
2023-03-05T09:47:45.019Z,61.53
2023-03-05T09:50:43.464Z,59.05
2023-03-05T09:53:28.954Z,60.31
2023-03-05T09:56:00.638Z,62.04
2023-03-05T09:58:48.951Z,61.31
2023-03-05T10:01:23.710Z,60.98
2023-03-05T10:04:09.678Z,61.21
2023-03-05T10:06:58.090Z,58.99
2023-03-05T10:09:51.258Z,57.64
2023-03-05T10:12:28.021Z,57.72
2023-03-05T10:15:00.649Z,56.97
2023-03-05T10:17:55.407Z,59.28
2023-03-05T10:20:48.555Z,57.26
2023-03-05T10:23:33.383Z,58.95
2023-03-05T10:26:20.537Z,57.89
2023-03-05T10:29:24.744Z,57.22
2023-03-05T10:32:00.448Z,56.13
2023-03-05T10:34:57.016Z,58.32
2023-03-05T10:37:48.519Z,58.06
2023-03-05T10:40:45.927Z,55.44
2023-03-05T10:43:31.246Z,57.03
2023-03-05T10:45:59.423Z,56.47
2023-03-05T10:48:34.723Z,59.86
2023-03-05T10:51:10.685Z,57.83
2023-03-05T10:53:50.778Z,57.31
2023-03-05T10:56:21.421Z,57.56
2023-03-05T10:58:52.830Z,56.49
2023-03-05T11:01:31.977Z,56.39
2023-03-05T11:04:06.126Z,58.34
2023-03-05T11:06:43.115Z,60.06
2023-03-05T11:09:15.657Z,56.59
2023-03-05T11:11:42.342Z,58.98
2023-03-05T11:14:30.789Z,58.66
2023-03-05T11:16:57.770Z,60.50
2023-03-05T11:19:36.862Z,57.50
2023-03-05T11:22:17.086Z,57.62
2023-03-05T11:24:46.771Z,55.45
2023-03-05T11:27:35.213Z,56.24
2023-03-05T11:30:19.131Z,56.82
2023-03-05T11:32:47.926Z,55.68
2023-03-05T11:35:36.110Z,56.30
2023-03-05T11:38:04.977Z,54.47
2023-03-05T11:40:35.849Z,54.08
2023-03-05T11:43:04.607Z,53.21
2023-03-05T11:45:33.152Z,55.33
2023-03-05T11:48:20.003Z,53.37
2023-03-05T11:50:53.105Z,53.36
2023-03-05T11:53:38.844Z,54.06
2023-03-05T11:56:18.736Z,52.87
2023-03-05T11:58:54.703Z,51.95
2023-03-05T12:01:27.671Z,52.74
2023-03-05T12:03:55.588Z,54.34
2023-03-05T12:06:47.136Z,51.90
2023-03-05T12:09:23.787Z,52.81
2023-03-05T12:12:16.776Z,53.34
2023-03-05T12:15:08.217Z,51.55
2023-03-05T12:17:58.364Z,50.50
2023-03-05T12:20:35.752Z,52.19
2023-03-05T12:23:02.696Z,50.79
2023-03-05T12:25:53.198Z,52.24
2023-03-05T12:28:28.895Z,51.44
2023-03-05T12:30:59.347Z,50.38
2023-03-05T12:33:38.558Z,51.86
2023-03-05T12:36:17.631Z,51.30
2023-03-05T12:38:58.288Z,51.65
2023-03-05T12:41:28.280Z,52.48
2023-03-05T12:44:21.155Z,52.06
2023-03-05T12:47:13.320Z,52.98
2023-03-05T12:49:48.414Z,52.69
2023-03-05T12:52:28.485Z,53.05
2023-03-05T12:55:54.268Z,51.42
2023-03-05T12:58:40.840Z,52.53
2023-03-05T13:01:26.949Z,52.40
2023-03-05T13:04:54.912Z,51.36
2023-03-05T13:07:46.198Z,53.20
2023-03-05T13:10:27.694Z,52.12
2023-03-05T13:13:04.714Z,52.27
2023-03-05T13:18:46.109Z,52.66
2023-03-05T13:21:21.305Z,51.32
2023-03-05T13:24:05.296Z,51.54
2023-03-05T13:26:46.085Z,52.90
2023-03-05T13:29:15.694Z,52.25
2023-03-05T13:32:27.215Z,52.51
2023-03-05T13:35:18.250Z,51.40
2023-03-05T13:38:36.236Z,51.91
2023-03-05T13:41:43.664Z,52.15
2023-03-05T13:44:21.817Z,53.71
2023-03-05T13:46:48.285Z,52.89
2023-03-05T13:49:22.491Z,54.07
2023-03-05T13:52:00.121Z,52.51
2023-03-05T13:54:28.104Z,52.83
2023-03-05T13:57:02.377Z,51.12
2023-03-05T13:59:35.028Z,50.96
2023-03-05T14:02:05.855Z,51.37
2023-03-05T14:04:41.493Z,51.89
2023-03-05T14:07:26.793Z,52.25
2023-03-05T14:09:53.786Z,50.79
2023-03-05T14:12:35.511Z,51.88
2023-03-05T14:15:02.618Z,52.38
2023-03-05T14:17:35.263Z,52.19
2023-03-05T14:20:08.112Z,53.90
2023-03-05T14:22:37.294Z,53.63
2023-03-05T14:25:06.461Z,53.39
2023-03-05T14:27:47.421Z,52.53
2023-03-05T14:30:17.303Z,52.16
2023-03-05T14:32:44.810Z,53.89
2023-03-05T14:35:20.242Z,54.65
2023-03-05T14:37:50.174Z,53.27
2023-03-05T14:40:21.913Z,54.51
2023-03-05T14:42:57.287Z,52.71
2023-03-05T14:45:26.946Z,53.96
2023-03-05T14:47:55.011Z,54.57
2023-03-05T14:50:34.727Z,53.38
2023-03-05T14:53:15.545Z,53.33
2023-03-05T14:55:45.790Z,53.61
2023-03-05T14:58:15.775Z,54.59
2023-03-05T15:00:43.621Z,53.60
2023-03-05T15:03:15.556Z,54.11
2023-03-05T15:05:43.766Z,54.08
2023-03-05T15:08:17.320Z,55.66
2023-03-05T15:10:44.144Z,54.40
2023-03-05T15:13:13.684Z,54.61
2023-03-05T15:15:42.245Z,56.32
2023-03-05T15:18:17.365Z,53.72
2023-03-05T15:20:44.658Z,54.93
2023-03-05T15:23:12.929Z,54.55
2023-03-05T15:25:39.975Z,55.10
2023-03-05T15:28:06.775Z,55.03
2023-03-05T15:30:39.244Z,55.48
2023-03-05T15:33:09.504Z,54.52
2023-03-05T15:35:36.902Z,53.96
2023-03-05T15:38:03.991Z,53.56
2023-03-05T15:40:30.582Z,52.88
2023-03-05T15:42:59.048Z,54.13
2023-03-05T15:45:26.606Z,52.61
2023-03-05T15:47:53.547Z,54.33
2023-03-05T15:50:21.568Z,54.16
2023-03-05T15:52:48.731Z,54.15
2023-03-05T15:55:15.905Z,55.39
2023-03-05T15:57:45.195Z,54.35
2023-03-05T16:00:13.996Z,54.34
2023-03-05T16:02:40.601Z,55.97
2023-03-05T16:05:08.252Z,55.17
2023-03-05T16:07:37.159Z,57.10
2023-03-05T16:10:04.640Z,55.86
2023-03-05T16:12:40.534Z,55.86
2023-03-05T16:15:13.470Z,56.50
2023-03-05T16:17:43.552Z,57.04
2023-03-05T16:20:12.077Z,54.88
2023-03-05T16:22:38.716Z,56.33
2023-03-05T16:25:05.838Z,55.28
2023-03-05T16:27:32.421Z,55.55
2023-03-05T16:29:59.066Z,55.11
2023-03-05T16:32:25.823Z,54.87
2023-03-05T16:34:52.472Z,55.54
2023-03-05T16:37:21.388Z,55.20
2023-03-05T16:39:48.295Z,56.58
2023-03-05T16:42:15.077Z,57.01
2023-03-05T16:44:43.057Z,55.89
2023-03-05T16:47:12.201Z,54.69
2023-03-05T16:49:39.487Z,56.73
2023-03-05T16:52:18.309Z,56.44
2023-03-05T16:54:46.278Z,58.26
2023-03-05T16:57:12.810Z,60.09
2023-03-05T16:59:39.417Z,60.72
2023-03-05T17:02:06.101Z,61.15
2023-03-05T17:04:32.930Z,60.97
2023-03-05T17:06:59.613Z,61.59
2023-03-05T17:09:26.169Z,62.28
2023-03-05T17:11:53.660Z,62.54
2023-03-05T17:14:20.913Z,64.14
2023-03-05T17:16:47.613Z,62.78
2023-03-05T17:19:14.565Z,65.59
2023-03-05T17:21:42.456Z,65.24
2023-03-05T17:24:10.180Z,64.00
2023-03-05T17:26:37.185Z,66.65
2023-03-05T17:29:04.849Z,66.31
2023-03-05T17:31:31.612Z,64.86
2023-03-05T17:33:58.430Z,63.97
2023-03-05T17:36:25.533Z,66.81
2023-03-05T17:38:52.789Z,64.52
2023-03-05T17:41:19.843Z,65.21
2023-03-05T17:43:46.426Z,63.75
2023-03-05T17:46:13.483Z,64.30
2023-03-05T17:48:40.306Z,64.74
2023-03-05T17:51:09.725Z,65.07
2023-03-05T17:53:38.844Z,65.51
2023-03-05T17:56:10.212Z,67.77
2023-03-05T17:58:37.216Z,66.31
2023-03-05T18:01:05.971Z,65.64
2023-03-05T18:03:32.580Z,65.53
2023-03-05T18:05:59.207Z,64.42
2023-03-05T18:08:25.727Z,65.35
2023-03-05T18:10:53.281Z,65.42
2023-03-05T18:13:19.799Z,66.98
2023-03-05T18:15:47.755Z,66.15
2023-03-05T18:18:18.725Z,66.19
2023-03-05T18:23:54.568Z,65.92
2023-03-05T18:26:21.117Z,67.16
2023-03-05T18:28:47.637Z,67.68
2023-03-05T18:31:14.488Z,68.81
2023-03-05T18:33:42.214Z,68.50
2023-03-05T18:36:10.721Z,69.35
2023-03-05T18:38:38.463Z,70.14
2023-03-05T18:41:06.184Z,70.01
2023-03-05T18:43:32.786Z,70.40
2023-03-05T18:46:04.740Z,69.41
2023-03-05T18:48:31.290Z,70.72
2023-03-05T18:50:57.823Z,70.83
2023-03-05T18:53:24.414Z,70.48
2023-03-05T18:55:52.645Z,70.30
2023-03-05T18:58:19.552Z,70.54
2023-03-05T19:00:47.059Z,68.67
2023-03-05T19:03:14.903Z,71.40
2023-03-05T19:05:42.206Z,72.85
2023-03-05T19:08:09.175Z,71.89
2023-03-05T19:10:35.796Z,72.11
2023-03-05T19:13:39.950Z,71.53
2023-03-05T19:16:40.402Z,73.47
2023-03-05T19:19:23.054Z,74.12
2023-03-05T19:21:54.924Z,72.93
2023-03-05T19:24:26.903Z,73.86
2023-03-05T19:26:55.777Z,73.56
2023-03-05T19:29:24.033Z,72.41
2023-03-05T19:31:51.461Z,71.45
2023-03-05T19:34:18.553Z,71.22
2023-03-05T19:36:45.051Z,72.01
2023-03-05T19:39:11.717Z,74.24
2023-03-05T19:41:38.215Z,74.28
2023-03-05T19:44:05.615Z,73.89
2023-03-05T19:46:32.613Z,74.16
2023-03-05T19:48:59.319Z,73.47
2023-03-05T19:51:27.016Z,72.06
2023-03-05T19:53:53.824Z,71.79
2023-03-05T19:56:20.765Z,72.98
2023-03-05T19:58:48.893Z,71.85
2023-03-05T20:01:20.919Z,71.55
2023-03-05T20:03:51.706Z,72.25
2023-03-05T20:06:18.274Z,71.12
2023-03-05T20:08:44.822Z,72.39
2023-03-05T20:11:13.430Z,71.90
2023-03-05T20:13:40.692Z,72.93
2023-03-05T20:16:26.092Z,72.15
2023-03-05T20:18:54.826Z,72.51
2023-03-05T20:21:33.342Z,73.20
2023-03-05T20:24:03.705Z,71.48
2023-03-05T20:26:32.783Z,70.78
2023-03-05T20:28:59.467Z,71.20
2023-03-05T20:31:27.799Z,70.80
2023-03-05T20:33:56.194Z,70.10
2023-03-05T20:36:24.093Z,69.71
2023-03-05T20:38:50.663Z,70.13
2023-03-05T20:41:20.673Z,70.86
2023-03-05T20:43:49.528Z,70.90
2023-03-05T20:46:26.427Z,71.55
2023-03-05T20:48:59.001Z,70.56
2023-03-05T20:51:37.801Z,71.10
2023-03-05T20:54:07.047Z,71.67
2023-03-05T20:56:34.924Z,70.82
2023-03-05T20:59:04.508Z,70.37
2023-03-05T21:01:33.325Z,69.64
2023-03-05T21:04:01.016Z,69.71
2023-03-05T21:06:28.286Z,70.17
2023-03-05T21:08:55.678Z,70.91
2023-03-05T21:11:22.532Z,71.44
2023-03-05T21:13:49.074Z,72.29
2023-03-05T21:16:19.479Z,71.25
2023-03-05T21:18:46.142Z,71.82
2023-03-05T21:21:12.687Z,70.55
2023-03-05T21:23:39.192Z,69.90
2023-03-05T21:26:05.897Z,70.89
